Tiempo atmosférico en la estación meteorológica de Carballiño, O, Ourense (400 m.)



Fecha
DESCASC
Temp. máxima en grados centígrados (hora)
DESCASC
Temp. mínima en grados centígrados (hora)
DESCASC
Temp. media en grados centígrados
DESCASC
Racha de viento máxima en m/sg (hora)
DESCASC
Velocidad máxima media en intervalos de 10 minutos(hora)
DESCASC
Precipitaciones diarias en mm
DESCASC
Precipitaciones de 00:00 a 06:00 en mm
DESCASC
Precipitaciones de 06:00 a 12:00 en mm
DESCASC
Precipitaciones de 12:00 a 18:00 en mm
DESCASC
Precipitaciones de 18:00 a 24:00 en mm
DESCASC
20-02-2020 17.4 (17:00) -0.3 (08:20) 8.5 4.72 (20:00) 1.67 (20:20) 0 0 0 0 0
19-02-2020 16.5 (17:10) -1.1 (07:50) 7.7 2.5 (13:40) 0.28 (15:10) 0 0 0 0 0
18-02-2020 13.8 (16:40) -1 (08:20) 6.4 5.83 (16:30) 2.5 (16:50) 0 0 0 0 0
17-02-2020 15 (16:00) 3.9 (23:59) 9.5 6.39 (02:30) 3.33 (16:50) 4 3.8 0.2 0 0
16-02-2020 13.8 (16:20) 12.3 (00:00) 13.1 13.33 (09:10) 3.06 (09:30) 7.3 0 0.1 1.9 5.3
15-02-2020 14.3 (14:50) 3.1 (00:00) 8.7 8.61 (19:00) 2.22 (15:10) 0 0 0 0 0
14-02-2020 13.6 (15:00) 6.3 (00:00) 10 3.33 (17:30) 0.56 (17:30) 0.5 0 0.5 0 0
13-02-2020 13.9 (14:50) 10.7 (00:00) 12.3 5 (05:40) 1.94 (05:40) 1.6 0 0.2 1.4 0
12-02-2020 18.1 (16:10) 8.9 (00:00) 13.5 5 (17:10) 1.67 (17:10) 0.1 0 0 0.1 0
11-02-2020 13.5 (14:20) 7 (00:00) 10.3 2.22 (15:10) 0.56 (12:20) 0.5 0 0 0.2 0.3
10-02-2020 16.7 (15:20) 9.1 (00:00) 12.9 8.06 (16:20) 2.78 (16:20) 0.1 0.1 0 0 0
09-02-2020 12.6 (13:50) 4.4 (00:00) 8.5 4.17 (14:40) 0.83 (16:30) 0.5 0 0 0 0.5
08-02-2020 14.3 (14:50) 5.5 (00:00) 9.9 5.28 (16:30) 2.22 (16:30) 5.3 5 0.3 0 0
07-02-2020 14.6 (14:50) 5.3 (00:00) 10 6.94 (16:40) 1.11 (16:10) 1.5 0 0 0 1.5
06-02-2020 19.3 (16:00) 2.3 (00:00) 10.8 4.72 (13:30) 1.11 (13:40) 0 0 0 0 0
05-02-2020 -- (--) -- (--) -- -- (--) -- (--) -- 0 0 0 --
04-02-2020 17.3 (16:10) 4.2 (00:00) 10.7 2.22 (00:20) 0.56 (12:20) 0 0 0 0 0
03-02-2020 22.1 (16:40) 5 (09:00) 13.6 4.17 (17:10) 1.39 (17:30) 0 0 0 0 0
02-02-2020 20.3 (15:20) 8.7 (00:00) 14.5 7.5 (14:10) 2.78 (08:30) 0.1 0 0 0.1 0
01-02-2020 14.8 (14:50) 13 (00:00) 13.9 5 (01:30) 1.11 (00:50) 4.5 1.9 0.8 1.7 0.1
31-01-2020 15.6 (16:10) 11.4 (00:00) 13.5 10.83 (16:40) 1.67 (16:40) 11.8 0.3 0 0 11.5
30-01-2020 14 (15:40) 11 (00:00) 12.5 7.22 (12:40) 1.39 (01:00) 1.7 0.1 1 0 0.6
29-01-2020 12.4 (14:00) 10.4 (00:00) 11.4 6.39 (23:50) 1.39 (22:00) 17.1 4.6 8 4 0.5
28-01-2020 11.9 (15:50) 7.2 (00:00) 9.5 7.78 (00:40) 3.33 (00:50) 0.5 0 0 0.1 0.4
27-01-2020 11.4 (22:30) 9.5 (00:00) 10.4 9.72 (22:10) 3.33 (22:30) 24.5 6.9 9.4 1.1 7.1
26-01-2020 10.9 (16:50) 0.3 (00:00) 5.6 6.39 (20:10) 1.67 (20:00) 0.5 0 0.4 0 0.1
25-01-2020 14 (15:10) -0.6 (-00:0) 6.7 2.5 (15:20) 0.56 (15:20) 0 0 0 0 0
24-01-2020 12.9 (14:00) 1.6 (00:00) 7.2 4.44 (14:00) 1.67 (13:20) 0 0 0 0 0
23-01-2020 12.8 (16:30) -0.2 (00:00) 6.3 3.33 (21:40) 0.56 (16:30) 0 0 0 0 0
22-01-2020 14.9 (14:20) 6.5 (00:00) 10.7 11.39 (00:20) 5.28 (00:20) 0 0 0 0 0

Gráficas

Temp. máximas Temp. mínimas Temp. medias Precipitaciones Rachas de viento máximas Velocidades máximas media en intervalos de 10 minutos

Datos horarios

Fecha y hora oficial Temperatura (ºC) Velocidad del viento (km/h) Dirección del viento Racha (km/h) Dirección de racha Precipitación (mm) Presión (hPa) Tendencia (hPa) Humedad (%)
2020-02-20 23:00:00 8.6 0 Calma 6 Nordeste 0 -- -- 84
2020-02-20 22:00:00 10.1 4 Norte 16 Norte 0 -- -- 81
2020-02-20 21:00:00 10.7 4 Norte 16 Nordeste 0 -- -- 76
2020-02-20 20:00:00 11.8 5 Nordeste 17 Nordeste 0 -- -- 68
2020-02-20 19:00:00 13.8 0 Calma 7 Oeste 0 -- -- 55
2020-02-20 18:00:00 15.7 0 Calma 6 Oeste 0 -- -- 49
2020-02-20 17:00:00 17.2 0 Calma 9 Nordeste 0 -- -- 45
2020-02-20 16:00:00 16.5 0 Calma 8 Sur 0 -- -- 47
2020-02-20 15:00:00 14.6 2 Sur 11 Sur 0 -- -- 53
2020-02-20 14:00:00 13.9 4 Sur 12 Sur 0 -- -- 58
2020-02-20 13:00:00 12.1 2 Sur 10 Sur 0 -- -- 65
2020-02-20 12:00:00 9.8 0 Calma 10 Oeste 0 -- -- 80
2020-02-20 11:00:00 6 0 Calma 3 Oeste 0 -- -- 98
2020-02-20 10:00:00 1 0 Calma 2 Noroeste 0 -- -- 98
2020-02-20 09:00:00 -0.1 0 Calma 2 Nordeste 0 -- -- 97
2020-02-20 08:00:00 -0.2 0 Calma 8 Norte 0 -- -- 97
2020-02-20 07:00:00 0 0 Calma 0 Calma 0 -- -- 96
2020-02-20 06:00:00 0.4 0 Calma 0 Calma 0 -- -- 96
2020-02-20 05:00:00 0.6 0 Calma 4 Norte 0 -- -- 96
2020-02-20 04:00:00 1.1 0 Calma 5 Norte 0 -- -- 95
2020-02-20 03:00:00 1.6 0 Calma 6 Nordeste 0 -- -- 93
2020-02-20 02:00:00 2.2 0 Calma 6 Norte 0 -- -- 92
2020-02-20 01:00:00 3 0 Calma 6 Nordeste 0 -- -- 90
2020-02-20 00:00:00 3.9 0 Calma 6 Nordeste 0 -- -- 87
2020-02-19 23:00:00 4.9 0 Calma 8 Nordeste 0 -- -- 84
2020-02-19 22:00:00 6.3 0 Calma -- -- 0 -- -- 80
2020-02-19 21:00:00 7.9 0 Calma -- -- 0 -- -- 74
2020-02-19 20:00:00 10.2 0 Calma -- -- 0 -- -- 63
2020-02-19 19:00:00 13.2 0 Calma -- -- 0 -- -- 51
2020-02-19 18:00:00 15 0 Calma -- -- 0 -- -- 46
2020-02-19 17:00:00 16.2 0 Calma 7 Oeste 0 -- -- 45
2020-02-19 16:00:00 16 0 Calma 8 Sudeste 0 -- -- 46
2020-02-19 15:00:00 15 0 Calma 8 Sudoeste 0 -- -- 48
2020-02-19 14:00:00 12.7 0 Calma 9 Sudoeste 0 -- -- 56
2020-02-19 13:00:00 10.4 0 Calma 6 Sur 0 -- -- 67
2020-02-19 12:00:00 7.6 0 Calma -- -- 0 -- -- 86
2020-02-19 11:00:00 3.5 0 Calma -- -- 0 -- -- 98
2020-02-19 10:00:00 0.1 0 Calma -- -- 0 -- -- 98
2020-02-19 09:00:00 -0.9 0 Calma -- -- 0 -- -- 97
2020-02-19 08:00:00 -1 0 Calma -- -- 0 -- -- 97
2020-02-19 07:00:00 -0.9 0 Calma -- -- 0 -- -- 97
2020-02-19 06:00:00 -0.7 0 Calma -- -- 0 -- -- 97
2020-02-19 05:00:00 -0.4 0 Calma -- -- 0 -- -- 96
2020-02-19 04:00:00 0 0 Calma -- -- 0 -- -- 96
2020-02-19 03:00:00 0.5 0 Calma -- -- 0 -- -- 94
2020-02-19 02:00:00 1.1 0 Calma -- -- 0 -- -- 93
2020-02-19 01:00:00 1.9 0 Calma -- -- 0 -- -- 91
2020-02-19 00:00:00 3.6 0 Calma 12 Nordeste 0 -- -- 89
2020-02-18 23:00:00 3.6 0 Calma 8 Nordeste 0 -- -- 87
2020-02-18 22:00:00 4.6 0 Calma -- -- 0 -- -- 83
2020-02-18 21:00:00 6.1 0 Calma 4 Nordeste 0 -- -- 76
2020-02-18 20:00:00 7.9 3 Nordeste 9 Norte 0 -- -- 68
2020-02-18 19:00:00 9.9 5 Norte 18 Norte 0 -- -- 57
2020-02-18 18:00:00 11.6 6 Norte 21 Noroeste 0 -- -- 53
2020-02-18 17:00:00 12.6 6 Norte 21 Norte 0 -- -- 49
2020-02-18 16:00:00 12.1 0 Calma 9 Noroeste 0 -- -- 54
2020-02-18 15:00:00 11.8 0 Calma 12 Este 0 -- -- 59
2020-02-18 14:00:00 10.2 2 Sur 10 Sudeste 0 -- -- 67
2020-02-18 13:00:00 8.7 4 Sur 10 Sur 0 -- -- 72
2020-02-18 12:00:00 8.1 0 Calma 8 Sur 0 -- -- 89
2020-02-18 11:00:00 4 0 Calma -- -- 0 -- -- 97
2020-02-18 10:00:00 0.3 0 Calma 4 Noroeste 0 -- -- 98
2020-02-18 09:00:00 -0.8 0 Calma -- -- 0 -- -- 97
2020-02-18 08:00:00 -0.8 0 Calma -- -- 0 -- -- 97
2020-02-18 07:00:00 -0.7 0 Calma -- -- 0 -- -- 97
2020-02-18 06:00:00 -0.4 0 Calma -- -- 0 -- -- 96
2020-02-18 05:00:00 -0.1 0 Calma -- -- 0 -- -- 95
2020-02-18 04:00:00 0.3 0 Calma -- -- 0 -- -- 94
2020-02-18 03:00:00 1 0 Calma 6 Norte 0 -- -- 93
2020-02-18 02:00:00 1.5 0 Calma -- -- 0 -- -- 91
2020-02-18 01:00:00 2.5 0 Calma -- -- 0 -- -- 89
2020-02-18 00:00:00 3.9 0 Calma -- -- 0 -- -- 85
2020-02-17 23:00:00 5.6 0 Calma 8 Sur 0 -- -- 77
2020-02-17 22:00:00 6.7 5 Nordeste 16 Norte 0 -- -- 74
2020-02-17 21:00:00 7.5 3 Norte 20 Norte 0 -- -- 69
2020-02-17 20:00:00 8.3 7 Noroeste 16 Noroeste 0 -- -- 63
2020-02-17 19:00:00 10.1 3 Noroeste 16 Norte 0 -- -- 60
2020-02-17 18:00:00 11.6 6 Noroeste 23 Norte 0 -- -- 55
2020-02-17 17:00:00 13.2 8 Oeste 22 Noroeste 0 -- -- 49
2020-02-17 16:00:00 13.8 9 Norte 23 Oeste 0 -- -- 51
2020-02-17 15:00:00 12.5 7 Oeste 20 Oeste 0 -- -- 55
2020-02-17 14:00:00 11 6 Oeste 20 Noroeste 0 -- -- 64
2020-02-17 13:00:00 10.7 4 Oeste 19 Oeste 0 -- -- 66
2020-02-17 12:00:00 11.4 9 Oeste 21 Noroeste 0.1 -- -- 66
2020-02-17 11:00:00 10 0 Calma 9 Oeste 0 -- -- 87
2020-02-17 10:00:00 8.7 0 Calma 7 Noroeste 0.1 -- -- 94
2020-02-17 09:00:00 8.7 0 Calma -- -- 0 -- -- 93
2020-02-17 08:00:00 8.9 0 Calma 6 Sur 0 -- -- 89
2020-02-17 07:00:00 8.8 0 Calma 14 Sur 0 -- -- 90
2020-02-17 06:00:00 9.7 0 Calma 13 Noroeste 0.2 -- -- 91
2020-02-17 05:00:00 10.2 0 Calma 8 Sur 0.2 -- -- 92
2020-02-17 04:00:00 11 3 Oeste 18 Noroeste 0.4 -- -- 92
2020-02-17 03:00:00 11.7 6 Oeste 23 Oeste 1.6 -- -- 96
2020-02-17 02:00:00 13.1 0 Calma 16 Sur 0.9 -- -- 96
2020-02-17 01:00:00 13 0 Calma 13 Sur 0.5 -- -- 96
2020-02-17 00:00:00 13.1 0 Calma 20 Sur 1.1 -- -- 96
2020-02-16 23:00:00 13.1 4 Sur 20 Sudoeste 0.6 -- -- 96
2020-02-16 22:00:00 13.1 3 Sudoeste 14 Sur 0.5 -- -- 96
2020-02-16 21:00:00 13.1 3 Sudoeste 19 Sur 0.5 -- -- 96
2020-02-16 20:00:00 12.9 4 Sur 23 Sur 1.4 -- -- 96
2020-02-16 19:00:00 12.8 5 Sur 27 Sur 1.2 -- -- 95
2020-02-16 18:00:00 13.1 5 Sur 34 Sudoeste 0.5 -- -- 93
2020-02-16 17:00:00 13.3 4 Sudoeste 36 Sur 0.2 -- -- 91
2020-02-16 16:00:00 13.5 7 Sur 33 Sur 0.1 -- -- 89
2020-02-16 15:00:00 13.5 8 Sudoeste 30 Sudoeste 0.1 -- -- 91
2020-02-16 14:00:00 13.2 4 Sudoeste 28 Sudeste 0.8 -- -- 92
2020-02-16 13:00:00 13.3 7 Sudoeste 28 Sudoeste 0.2 -- -- 89
2020-02-16 12:00:00 13 6 Sudoeste 36 Sur 0.1 -- -- 88
2020-02-16 11:00:00 12.7 7 Sudoeste 38 Sudoeste 0 -- -- 87
2020-02-16 10:00:00 12.6 10 Sudoeste 48 Oeste 0 -- -- 86
2020-02-16 09:00:00 12.4 9 Sudoeste 38 Sudoeste 0 -- -- 85
2020-02-16 08:00:00 12.7 7 Sudoeste 39 Sur 0 -- -- 82
2020-02-16 07:00:00 12.8 6 Sudoeste 30 Sudoeste 0 -- -- 83
2020-02-16 06:00:00 12.6 5 Sudoeste 32 Sudoeste 0 -- -- 84
2020-02-16 05:00:00 12.6 5 Sudoeste 29 Oeste 0 -- -- 83
2020-02-16 04:00:00 12.5 4 Sudoeste 24 Sudoeste 0 -- -- 82
2020-02-16 03:00:00 12.6 4 Sur 27 Sudoeste 0 -- -- 80
2020-02-16 02:00:00 12.5 3 Sudoeste 25 Oeste 0 -- -- 82
2020-02-16 01:00:00 12.7 5 Sur 33 Sudeste 0 -- -- 82
2020-02-16 00:00:00 12.4 0 Calma 14 Sur 0 -- -- 82
2020-02-15 23:00:00 12.4 4 Sur 26 Sudoeste 0 -- -- 82
2020-02-15 22:00:00 12.5 5 Sur 19 Sur 0 -- -- 81
2020-02-15 21:00:00 12.2 3 Sudoeste 20 Sudoeste 0 -- -- 84
2020-02-15 20:00:00 12 3 Sudoeste 22 Oeste 0 -- -- 85
2020-02-15 19:00:00 12.6 6 Sudoeste 31 Oeste 0 -- -- 80
2020-02-15 18:00:00 12.8 5 Sudoeste 26 Sudoeste 0 -- -- 77
2020-02-15 17:00:00 12.7 4 Sur 21 Sur 0 -- -- 76
2020-02-15 16:00:00 12.9 4 Sur 29 Sudoeste 0 -- -- 73
2020-02-15 15:00:00 14 6 Sudoeste 25 Sudoeste 0 -- -- 70
2020-02-15 14:00:00 13.1 4 Sur 17 Sur 0 -- -- 75
2020-02-15 13:00:00 12 2 Sur 14 Sur 0 -- -- 81
2020-02-15 12:00:00 10.6 2 Sur 16 Sudeste 0 -- -- 86
2020-02-15 11:00:00 9.4 0 Calma 19 Sur 0 -- -- 97
2020-02-15 10:00:00 8.2 0 Calma 8 Sur 0 -- -- 98
2020-02-15 09:00:00 6.4 2 Sur 12 Sur 0 -- -- 98
2020-02-15 08:00:00 4.5 0 Calma -- -- 0 -- -- 98
2020-02-15 07:00:00 3.5 0 Calma 4 Nordeste 0 -- -- 98
2020-02-15 06:00:00 3.2 0 Calma 4 Nordeste 0 -- -- 97
2020-02-15 05:00:00 3.4 0 Calma 4 Nordeste 0 -- -- 97
2020-02-15 04:00:00 3.8 0 Calma 7 Norte 0 -- -- 96
2020-02-15 03:00:00 4.2 0 Calma 3 Nordeste 0 -- -- 96
2020-02-15 02:00:00 5 0 Calma 4 Nordeste 0 -- -- 95
2020-02-15 01:00:00 5.6 0 Calma 3 Sudeste 0 -- -- 94
2020-02-15 00:00:00 6.4 0 Calma 5 Nordeste 0 -- -- 93
2020-02-14 23:00:00 7.1 0 Calma -- -- 0 -- -- 92
2020-02-14 22:00:00 7.7 0 Calma -- -- 0 -- -- 91
2020-02-14 21:00:00 8.9 0 Calma -- -- 0 -- -- 88
2020-02-14 20:00:00 10.6 0 Calma -- -- 0 -- -- 83
2020-02-14 19:00:00 12.4 0 Calma 6 Oeste 0 -- -- 79
2020-02-14 18:00:00 12.7 0 Calma 12 Sudoeste 0 -- -- 80
2020-02-14 17:00:00 13.1 0 Calma 6 Sur 0 -- -- 83
2020-02-14 16:00:00 13 0 Calma 7 Sudoeste 0 -- -- 83
2020-02-14 15:00:00 13.5 0 Calma 7 Sur 0 -- -- 83
2020-02-14 14:00:00 13 0 Calma 7 Oeste 0 -- -- 82
2020-02-14 13:00:00 12.8 0 Calma 7 Sur 0 -- -- 88
2020-02-14 12:00:00 12 0 Calma 3 Nordeste 0 -- -- 95
2020-02-14 11:00:00 11 0 Calma 4 Este 0 -- -- 98
2020-02-14 10:00:00 10.3 0 Calma -- -- 0.2 -- -- 98
2020-02-14 09:00:00 9.6 0 Calma 6 Nordeste 0 -- -- 97
2020-02-14 08:00:00 9.5 0 Calma 4 Nordeste 0.1 -- -- 97
2020-02-14 07:00:00 9.5 0 Calma 4 Norte 0.2 -- -- 97
2020-02-14 06:00:00 9.3 0 Calma 4 Nordeste 0 -- -- 97
2020-02-14 05:00:00 9.2 0 Calma 2 Norte 0 -- -- 97
2020-02-14 04:00:00 9.1 0 Calma -- -- 0 -- -- 96
2020-02-14 03:00:00 9 0 Calma 0 Calma 0 -- -- 95
2020-02-14 02:00:00 9.5 0 Calma -- -- 0 -- -- 94
2020-02-14 01:00:00 10.8 0 Calma 5 Sudoeste 0 -- -- 94
2020-02-14 00:00:00 11 0 Calma 5 Sur 0 -- -- 95
2020-02-13 23:00:00 11 0 Calma 0 Calma 0 -- -- 94
2020-02-13 22:00:00 10.9 0 Calma -- -- 0 -- -- 93
2020-02-13 21:00:00 11 0 Calma 7 Oeste 0 -- -- 91
2020-02-13 20:00:00 11.3 0 Calma 6 Oeste 0 -- -- 90
2020-02-13 19:00:00 12 0 Calma 6 Oeste 0 -- -- 86
2020-02-13 18:00:00 12.5 0 Calma 8 Sudoeste 0.1 -- -- 86
2020-02-13 17:00:00 12.4 0 Calma 7 Oeste 0 -- -- 86
2020-02-13 16:00:00 12.5 0 Calma 12 Noroeste 0.3 -- -- 83
2020-02-13 15:00:00 13.6 3 Oeste 18 Sudoeste 0 -- -- 74
2020-02-13 14:00:00 12.6 3 Oeste 17 Oeste 0 -- -- 87
2020-02-13 13:00:00 13 0 Calma 13 Oeste 1 -- -- 94
2020-02-13 12:00:00 12 0 Calma 10 Sur 0 -- -- 94
2020-02-13 11:00:00 11.6 0 Calma 10 Sur 0 -- -- 96
2020-02-13 10:00:00 10.9 0 Calma 11 Oeste 0 -- -- 96
2020-02-13 09:00:00 10.7 0 Calma 7 Sudoeste 0.1 -- -- 95
2020-02-13 08:00:00 10.8 0 Calma 8 Sur 0.1 -- -- 94
2020-02-13 07:00:00 11 0 Calma 8 Sudoeste 0 -- -- 91
2020-02-13 06:00:00 11.3 4 Oeste 18 Oeste 0 -- -- 89
2020-02-13 05:00:00 11.2 4 Oeste 14 Oeste 0 -- -- 90
2020-02-13 04:00:00 11.2 3 Oeste 12 Sudoeste 0 -- -- 90
2020-02-13 03:00:00 11.5 2 Oeste 15 Oeste 0 -- -- 90
2020-02-13 02:00:00 11.6 0 Calma 17 Sudoeste 0 -- -- 90
2020-02-13 01:00:00 11.8 2 Oeste 9 Sudoeste 0 -- -- 89
2020-02-13 00:00:00 11.8 0 Calma 10 Sudoeste 0 -- -- 87
2020-02-12 23:00:00 12.2 0 Calma 9 Sur 0 -- -- 85
2020-02-12 22:00:00 12.7 0 Calma 11 Oeste 0 -- -- 82
2020-02-12 21:00:00 13.3 0 Calma 9 Oeste 0 -- -- 80
2020-02-12 20:00:00 13.7 0 Calma 9 Oeste 0 -- -- 75
2020-02-12 19:00:00 14.4 0 Calma 10 Sudoeste 0 -- -- 72
2020-02-12 18:00:00 15.3 5 Oeste 18 Oeste 0 -- -- 67
2020-02-12 17:00:00 16.5 6 Oeste 16 Sur 0.1 -- -- 61
2020-02-12 16:00:00 17.7 0 Calma 9 Oeste 0 -- -- 64
2020-02-12 15:00:00 16.5 0 Calma 12 Sur 0 -- -- 69
2020-02-12 14:00:00 14.6 0 Calma 6 Oeste 0 -- -- 76
2020-02-12 13:00:00 12.7 0 Calma 4 Noroeste 0 -- -- 83
2020-02-12 12:00:00 12 0 Calma 4 Sudoeste 0 -- -- 87
2020-02-12 11:00:00 11.3 0 Calma 4 Este 0 -- -- 96
2020-02-12 10:00:00 10.2 0 Calma -- -- 0 -- -- 97
2020-02-12 09:00:00 9.8 0 Calma -- -- 0 -- -- 97
2020-02-12 08:00:00 9.5 0 Calma -- -- 0 -- -- 97
2020-02-12 07:00:00 9.7 0 Calma 0 Calma 0 -- -- 97
2020-02-12 06:00:00 9.6 0 Calma 5 Nordeste 0 -- -- 96
2020-02-12 05:00:00 9.1 0 Calma -- -- 0 -- -- 96
2020-02-12 04:00:00 9.7 0 Calma -- -- 0 -- -- 95
2020-02-12 03:00:00 10.2 0 Calma -- -- 0 -- -- 95
2020-02-12 02:00:00 10.4 0 Calma -- -- 0 -- -- 95
2020-02-12 01:00:00 10.4 0 Calma 5 Nordeste 0 -- -- 95
2020-02-12 00:00:00 10.5 0 Calma 5 Nordeste 0 -- -- 95
2020-02-11 23:00:00 10.9 0 Calma 4 Norte 0 -- -- 95
2020-02-11 22:00:00 11.1 0 Calma 6 Sudeste 0 -- -- 94
2020-02-11 21:00:00 11.4 0 Calma -- -- 0 -- -- 93
2020-02-11 20:00:00 11.9 0 Calma -- -- 0.2 -- -- 90
2020-02-11 19:00:00 12.4 0 Calma -- -- 0.1 -- -- 87
2020-02-11 18:00:00 12.9 0 Calma -- -- 0.2 -- -- 83
2020-02-11 17:00:00 13 0 Calma 6 Sudeste 0 -- -- 77
2020-02-11 16:00:00 13.2 0 Calma 8 Sudoeste 0 -- -- 72
2020-02-11 15:00:00 13.2 0 Calma 7 Sudoeste 0 -- -- 72
2020-02-11 14:00:00 13 0 Calma 6 Sudoeste 0 -- -- 76
2020-02-11 13:00:00 12.6 0 Calma 8 Sur 0 -- -- 82
2020-02-11 12:00:00 11 0 Calma 5 Sudeste 0 -- -- 92
2020-02-11 11:00:00 10.3 0 Calma 2 Nordeste 0 -- -- 97
2020-02-11 10:00:00 9.3 0 Calma -- -- 0 -- -- 97
2020-02-11 09:00:00 8.8 0 Calma 0 Calma 0 -- -- 97
2020-02-11 08:00:00 8.5 0 Calma -- -- 0 -- -- 97
2020-02-11 07:00:00 8.2 0 Calma 0 Calma 0 -- -- 97
2020-02-11 06:00:00 7.8 0 Calma -- -- 0 -- -- 97
2020-02-11 05:00:00 7.6 0 Calma 2 Norte 0 -- -- 97
2020-02-11 04:00:00 7.4 0 Calma 3 Norte 0 -- -- 96
2020-02-11 03:00:00 7.3 0 Calma 0 Calma 0 -- -- 95
2020-02-11 02:00:00 7.3 0 Calma 4 Nordeste 0 -- -- 94
2020-02-11 01:00:00 8.2 0 Calma -- -- 0 -- -- 93
2020-02-11 00:00:00 9.1 0 Calma -- -- 0 -- -- 91
2020-02-10 23:00:00 9.6 0 Calma 8 Este 0 -- -- 88
2020-02-10 22:00:00 11 0 Calma 4 Sudoeste 0 -- -- 84
2020-02-10 21:00:00 11.9 0 Calma 14 Oeste 0 -- -- 82
2020-02-10 20:00:00 12.1 0 Calma 10 Oeste 0 -- -- 84
2020-02-10 19:00:00 12.7 4 Oeste 18 Oeste 0 -- -- 81
2020-02-10 18:00:00 13.2 3 Sudoeste 23 Oeste 0 -- -- 79
2020-02-10 17:00:00 14.1 3 Sudoeste 29 Sudoeste 0 -- -- 75
2020-02-10 16:00:00 14.6 7 Oeste 26 Oeste 0 -- -- 73
2020-02-10 15:00:00 15.5 3 Sudoeste 25 Sudoeste 0 -- -- 73
2020-02-10 14:00:00 14.5 2 Sudoeste 14 Sudoeste 0 -- -- 82
2020-02-10 13:00:00 14.2 2 Sur 10 Sur 0 -- -- 88
2020-02-10 12:00:00 13.2 0 Calma 15 Sur 0 -- -- 92
2020-02-10 11:00:00 12.7 0 Calma 11 Sur 0 -- -- 92
2020-02-10 10:00:00 12 0 Calma 15 Sudoeste 0 -- -- 92
2020-02-10 09:00:00 11.9 0 Calma 8 Sur 0 -- -- 91
2020-02-10 08:00:00 11.9 0 Calma 6 Sudeste 0 -- -- 91
2020-02-10 07:00:00 12 0 Calma 10 Sur 0 -- -- 91
2020-02-10 06:00:00 12.1 0 Calma 14 Oeste 0 -- -- 91
2020-02-10 05:00:00 12.3 0 Calma 14 Sudoeste 0 -- -- 92
2020-02-10 04:00:00 12.1 0 Calma 18 Oeste 0 -- -- 94
2020-02-10 03:00:00 12.2 4 Sudoeste 20 Oeste 0 -- -- 96
2020-02-10 02:00:00 12 0 Calma 15 Sudoeste 0.1 -- -- 97
2020-02-10 01:00:00 12 0 Calma 8 Sudoeste 0 -- -- 97
2020-02-10 00:00:00 12 0 Calma 14 Sudoeste 0.1 -- -- 96
2020-02-09 23:00:00 11.9 0 Calma 10 Sur 0.1 -- -- 96
2020-02-09 22:00:00 12 0 Calma 10 Oeste 0.1 -- -- 96
2020-02-09 21:00:00 11.9 0 Calma 9 Sudoeste 0.1 -- -- 94
2020-02-09 20:00:00 12 0 Calma 10 Sudoeste 0.1 -- -- 92
2020-02-09 19:00:00 12.1 0 Calma 10 Sudoeste 0 -- -- 90
2020-02-09 18:00:00 12.5 0 Calma 14 Sur 0 -- -- 88
2020-02-09 17:00:00 12.3 2 Sur 14 Sur 0 -- -- 87
2020-02-09 16:00:00 12.2 3 Sudoeste 14 Sur 0 -- -- 87
2020-02-09 15:00:00 12.3 3 Sur 15 Sudeste 0 -- -- 85
2020-02-09 14:00:00 12.5 0 Calma 12 Sudoeste 0 -- -- 84
2020-02-09 13:00:00 11.9 0 Calma 14 Sur 0 -- -- 85
2020-02-09 12:00:00 11.3 0 Calma 13 Sudeste 0 -- -- 86
2020-02-09 11:00:00 10 3 Sur 13 Sur 0 -- -- 93
2020-02-09 10:00:00 7.9 0 Calma 0 Calma 0 -- -- 96
2020-02-09 09:00:00 7.3 0 Calma -- -- 0 -- -- 96
2020-02-09 08:00:00 6.9 0 Calma 6 Nordeste 0 -- -- 97
2020-02-09 07:00:00 6.5 0 Calma 6 Nordeste 0 -- -- 97
2020-02-09 06:00:00 6.3 0 Calma 0 Calma 0 -- -- 97
2020-02-09 05:00:00 5.8 0 Calma 5 Nordeste 0 -- -- 97
2020-02-09 04:00:00 5.1 0 Calma 4 Nordeste 0 -- -- 96
2020-02-09 03:00:00 4.6 0 Calma 6 Norte 0 -- -- 95
2020-02-09 02:00:00 4.4 0 Calma 0 Calma 0 -- -- 94
2020-02-09 01:00:00 5.1 0 Calma -- -- 0 -- -- 94
2020-02-09 00:00:00 5.7 0 Calma 0 Calma 0 -- -- 93
2020-02-08 23:00:00 5.6 0 Calma -- -- 0 -- -- 91
2020-02-08 22:00:00 6.6 0 Calma 0 Calma 0 -- -- 87
2020-02-08 21:00:00 8 0 Calma 8 Oeste 0 -- -- 81
2020-02-08 20:00:00 9.4 0 Calma 2 Oeste 0 -- -- 72
2020-02-08 19:00:00 10.2 0 Calma 14 Oeste 0 -- -- 70
2020-02-08 18:00:00 11 5 Oeste 19 Oeste 0 -- -- 63
2020-02-08 17:00:00 12.6 5 Oeste 19 Oeste 0 -- -- 58
2020-02-08 16:00:00 13.1 7 Oeste 17 Oeste 0 -- -- 59
2020-02-08 15:00:00 13.7 3 Oeste 19 Oeste 0 -- -- 59
2020-02-08 14:00:00 12.4 3 Oeste 10 Oeste 0 -- -- 74
2020-02-08 13:00:00 11.3 0 Calma 0 Calma 0 -- -- 87
2020-02-08 12:00:00 10 0 Calma 5 Sudoeste 0 -- -- 93
2020-02-08 11:00:00 8.9 0 Calma -- -- 0 -- -- 96
2020-02-08 10:00:00 8.3 0 Calma 8 Sudeste 0 -- -- 96
2020-02-08 09:00:00 8.2 0 Calma 6 Nordeste 0 -- -- 96
2020-02-08 08:00:00 8.6 0 Calma -- -- 0.1 -- -- 96
2020-02-08 07:00:00 9 0 Calma 4 Sur 0.2 -- -- 96
2020-02-08 06:00:00 9.2 0 Calma 9 Oeste 0.6 -- -- 96
2020-02-08 05:00:00 9.5 5 Sudoeste 17 Sudoeste 3.1 -- -- 96
2020-02-08 04:00:00 10.5 0 Calma 5 Sur 0.3 -- -- 96
2020-02-08 03:00:00 10.2 0 Calma 13 Sur 0 -- -- 96
2020-02-08 02:00:00 10.4 0 Calma 6 Sur 0.4 -- -- 96
2020-02-08 01:00:00 10.8 0 Calma 9 Sur 0.6 -- -- 95
2020-02-08 00:00:00 10.9 0 Calma 8 Oeste 1.4 -- -- 93
2020-02-07 23:00:00 11.2 0 Calma 9 Sudoeste 0.1 -- -- 89
2020-02-07 22:00:00 11.3 0 Calma 4 Sudeste 0 -- -- 84
2020-02-07 21:00:00 11.6 0 Calma 4 Sur 0 -- -- 82
2020-02-07 20:00:00 12.2 0 Calma 10 Sur 0 -- -- 78
2020-02-07 19:00:00 12.7 0 Calma 15 Sudeste 0 -- -- 76
2020-02-07 18:00:00 13.5 2 Sur 16 Sur 0 -- -- 74
2020-02-07 17:00:00 13.8 2 Sur 25 Sur 0 -- -- 71
2020-02-07 16:00:00 14.5 3 Sur 15 Sur 0 -- -- 69
2020-02-07 15:00:00 14.3 3 Sur 11 Sur 0 -- -- 68
2020-02-07 14:00:00 14.4 0 Calma 9 Sudoeste 0 -- -- 70
2020-02-07 13:00:00 13.3 0 Calma 7 Sur 0 -- -- 75
2020-02-07 12:00:00 10.8 0 Calma 4 Este 0 -- -- 86
2020-02-07 11:00:00 8.9 0 Calma 3 Este 0 -- -- 97
2020-02-07 10:00:00 6.9 0 Calma 0 Calma 0 -- -- 97
2020-02-07 09:00:00 6.5 0 Calma 3 Nordeste 0 -- -- 97
2020-02-07 08:00:00 6.5 0 Calma 5 Nordeste 0 -- -- 97
2020-02-07 07:00:00 6.6 0 Calma -- -- 0 -- -- 97
2020-02-07 06:00:00 6.4 0 Calma 8 Nordeste 0 -- -- 96
2020-02-07 05:00:00 5.5 0 Calma -- -- 0 -- -- 95
2020-02-07 04:00:00 5.5 0 Calma -- -- 0 -- -- 94
2020-02-07 03:00:00 6.2 0 Calma 4 Nordeste 0 -- -- 94
2020-02-07 02:00:00 6.5 0 Calma -- -- 0 -- -- 94
2020-02-07 01:00:00 6.4 0 Calma -- -- 0 -- -- 92
2020-02-07 00:00:00 6.8 0 Calma -- -- 0 -- -- 91
2020-02-06 23:00:00 7.8 0 Calma -- -- 0 -- -- 88
2020-02-06 22:00:00 9 0 Calma -- -- 0 -- -- 84
2020-02-06 21:00:00 10.1 0 Calma -- -- 0 -- -- 79
2020-02-06 20:00:00 11.8 0 Calma -- -- 0 -- -- 72
2020-02-06 19:00:00 14.3 0 Calma 5 Sudoeste 0 -- -- 58
2020-02-06 18:00:00 16.6 0 Calma 10 Sur 0 -- -- 51
2020-02-06 17:00:00 18.4 0 Calma 11 Sur 0 -- -- 45
2020-02-06 16:00:00 19.1 0 Calma 14 Sur 0 -- -- 44
2020-02-06 15:00:00 18.2 0 Calma 13 Sur 0 -- -- 45
2020-02-06 14:00:00 16.3 3 Este 17 Este 0 -- -- 48
2020-02-06 13:00:00 13.2 3 Este 9 Este 0 -- -- 53
2020-02-06 12:00:00 11 0 Calma 10 Este 0 -- -- 62
2020-02-06 11:00:00 7.4 0 Calma 9 Nordeste 0 -- -- 86
2020-02-06 10:00:00 3.9 2 Nordeste 11 Nordeste 0 -- -- 95
2020-02-06 09:00:00 2.6 0 Calma -- -- 0 -- -- 95
2020-02-06 08:00:00 2.3 0 Calma 5 Norte 0 -- -- 93
2020-02-06 07:00:00 2.4 0 Calma 3 Norte 0 -- -- 92
2020-02-06 06:00:00 3 0 Calma -- -- 0 -- -- 91
2020-02-06 05:00:00 3.4 0 Calma 7 Nordeste 0 -- -- 89
2020-02-06 04:00:00 4.1 2 Nordeste 9 Nordeste 0 -- -- 89
2020-02-06 03:00:00 4.1 0 Calma -- -- 0 -- -- 88
2020-02-06 02:00:00 4.6 0 Calma 8 Nordeste 0 -- -- 85
2020-02-06 01:00:00 5.5 0 Calma 8 Nordeste 0 -- -- 83
2020-02-06 00:00:00 6.4 0 Calma 9 Nordeste 0 -- -- 78
2020-02-05 23:00:00 7.2 0 Calma 9 Nordeste 0 -- -- 75
2020-02-05 22:00:00 7.5 0 Calma 9 Nordeste 0 -- -- 75
2020-02-05 21:00:00 9 0 Calma 8 Nordeste 0 -- -- 66
2020-02-05 20:00:00 11.8 0 Calma -- -- -- -- -- 52
2020-02-05 19:00:00 -- -- -- -- -- -- -- -- --
2020-02-05 18:00:00 -- -- -- -- -- -- -- -- --
2020-02-05 17:00:00 18.6 0 Calma 18 Sur 0 -- -- 35
2020-02-05 16:00:00 17.3 5 Sudeste 17 Este 0 -- -- 38
2020-02-05 15:00:00 16.5 6 Este 17 Este 0 -- -- 43
2020-02-05 14:00:00 15.5 3 Este 17 Este 0 -- -- 49
2020-02-05 13:00:00 14.5 2 Sur 13 Este 0 -- -- 55
2020-02-05 12:00:00 11.4 0 Calma 13 Sudeste 0 -- -- 75
2020-02-05 11:00:00 8 0 Calma 11 Este 0 -- -- 98
2020-02-05 10:00:00 3.9 0 Calma 0 Calma 0 -- -- 98
2020-02-05 09:00:00 3.7 0 Calma 6 Nordeste 0 -- -- 98
2020-02-05 08:00:00 4.4 3 Nordeste 7 Nordeste 0 -- -- 98
2020-02-05 07:00:00 3.7 0 Calma 7 Nordeste 0 -- -- 97
2020-02-05 06:00:00 2.8 0 Calma 2 Nordeste 0 -- -- 96
2020-02-05 05:00:00 3.1 0 Calma -- -- 0 -- -- 96
2020-02-05 04:00:00 3.8 0 Calma -- -- 0 -- -- 96
2020-02-05 03:00:00 4.4 0 Calma -- -- 0 -- -- 95
2020-02-05 02:00:00 5.2 0 Calma -- -- 0 -- -- 95
2020-02-05 01:00:00 6.1 0 Calma -- -- 0 -- -- 94
2020-02-05 00:00:00 7 0 Calma 4 Nordeste 0 -- -- 94
2020-02-04 23:00:00 7.7 0 Calma -- -- 0 -- -- 92
2020-02-04 22:00:00 8.7 0 Calma -- -- 0 -- -- 91
2020-02-04 21:00:00 10.1 0 Calma -- -- 0 -- -- 89
2020-02-04 20:00:00 11.7 0 Calma -- -- 0 -- -- 84
2020-02-04 19:00:00 13.6 0 Calma 2 Sudoeste 0 -- -- 75
2020-02-04 18:00:00 15.4 0 Calma 6 Sudoeste 0 -- -- 69
2020-02-04 12:00:00 9.4 0 Calma 5 Sur 0 -- -- 97
2020-02-04 11:00:00 8.1 0 Calma 0 Calma 0 -- -- 97
2020-02-04 10:00:00 5.6 0 Calma -- -- 0 -- -- 98
2020-02-04 09:00:00 4.5 0 Calma -- -- 0 -- -- 97
2020-02-04 08:00:00 4.3 0 Calma -- -- 0 -- -- 96
2020-02-04 07:00:00 4.9 0 Calma -- -- 0 -- -- 96
2020-02-04 06:00:00 5.6 0 Calma -- -- 0 -- -- 95
2020-02-04 05:00:00 6.4 0 Calma 5 Nordeste 0 -- -- 94
2020-02-04 04:00:00 7.2 0 Calma 7 Nordeste 0 -- -- 93
2020-02-04 03:00:00 7.9 0 Calma 5 Nordeste 0 -- -- 92
2020-02-04 02:00:00 8.5 0 Calma -- -- 0 -- -- 90
2020-02-04 01:00:00 9.8 0 Calma 8 Este 0 -- -- 88
2020-02-04 00:00:00 11.6 0 Calma 9 Noroeste 0 -- -- 87
2020-02-03 23:00:00 10.4 0 Calma 0 Calma 0 -- -- 85
2020-02-03 22:00:00 12 0 Calma 4 Noroeste 0 -- -- 78
2020-02-03 21:00:00 15.3 0 Calma 15 Sur 0 -- -- 61
2020-02-03 20:00:00 16.1 0 Calma 8 Este 0 -- -- 60
2020-02-03 19:00:00 17.4 0 Calma 8 Sudoeste 0 -- -- 58
2020-02-03 18:00:00 19.7 2 Sur 15 Sur 0 -- -- 50
2020-02-03 17:00:00 21.3 3 Sur 15 Sur 0 -- -- 47
2020-02-03 16:00:00 21.9 0 Calma 14 Sur 0 -- -- 47
2020-02-03 15:00:00 21.3 0 Calma 13 Sur 0 -- -- 48
2020-02-03 14:00:00 19.3 2 Sudoeste 10 Sudoeste 0 -- -- 50
2020-02-03 13:00:00 18.7 0 Calma 6 Nordeste 0 -- -- 60
2020-02-03 12:00:00 13.1 3 Este 7 Nordeste 0 -- -- 97
2020-02-03 11:00:00 9 0 Calma -- -- 0 -- -- 97
2020-02-03 10:00:00 5.9 0 Calma -- -- 0 -- -- 97
2020-02-03 09:00:00 5.1 0 Calma -- -- 0 -- -- 96
2020-02-03 08:00:00 5.3 0 Calma -- -- 0 -- -- 96
2020-02-03 07:00:00 5.6 0 Calma -- -- 0 -- -- 95
2020-02-03 06:00:00 6.3 0 Calma -- -- 0 -- -- 95
2020-02-03 05:00:00 6.5 0 Calma 6 Norte 0 -- -- 94
2020-02-03 04:00:00 6.7 0 Calma 4 Nordeste 0 -- -- 92
2020-02-03 03:00:00 7.2 0 Calma 7 Nordeste 0 -- -- 91
2020-02-03 02:00:00 8 0 Calma 9 Nordeste 0 -- -- 90
2020-02-03 01:00:00 8.5 0 Calma 12 Nordeste 0 -- -- 89
2020-02-03 00:00:00 8.7 0 Calma 6 Nordeste 0 -- -- 89
2020-02-02 23:00:00 9.4 0 Calma 12 Nordeste 0 -- -- 89
2020-02-02 22:00:00 9.8 0 Calma -- -- 0 -- -- 87
2020-02-02 21:00:00 11.2 0 Calma 5 Nordeste 0 -- -- 82
2020-02-02 20:00:00 13.5 0 Calma 6 Este 0 -- -- 72
2020-02-02 19:00:00 16.1 0 Calma 9 Sudeste 0 -- -- 59
2020-02-02 18:00:00 18.4 0 Calma 13 Sudeste 0 -- -- 51
2020-02-02 17:00:00 19.5 4 Sur 20 Sur 0 -- -- 47
2020-02-02 16:00:00 20.3 3 Sur 21 Sudoeste 0 -- -- 46
2020-02-02 15:00:00 19.8 4 Sur 27 Sudoeste 0.1 -- -- 47
2020-02-02 14:00:00 19 6 Sur 24 Sur 0 -- -- 49
2020-02-02 13:00:00 17.7 3 Sudeste 15 Sudeste 0 -- -- 64
2020-02-02 12:00:00 16.6 3 Sudeste 15 Sur 0 -- -- 67
2020-02-02 11:00:00 15.4 4 Sudeste 19 Este 0 -- -- 72
2020-02-02 10:00:00 13.9 4 Sudeste 21 Sudeste 0 -- -- 80
2020-02-02 09:00:00 13.7 6 Sur 24 Sur 0 -- -- 78
2020-02-02 08:00:00 13.5 4 Sur 18 Sur 0 -- -- 84
2020-02-02 07:00:00 14 0 Calma 14 Sudeste 0 -- -- 87
2020-02-02 06:00:00 13.9 0 Calma 20 Sur 0 -- -- 86
2020-02-02 05:00:00 13.6 0 Calma 16 Sur 0 -- -- 90
2020-02-02 04:00:00 13.5 0 Calma 9 Sur 0 -- -- 93
2020-02-02 03:00:00 13.4 2 Sur 10 Sur 0 -- -- 95
2020-02-02 02:00:00 13.5 0 Calma 9 Sudeste 0 -- -- 96
2020-02-02 01:00:00 13.6 3 Sur 11 Sur 0 -- -- 96
2020-02-02 00:00:00 13.4 3 Sudeste 10 Sudeste 0 -- -- 96
2020-02-01 23:00:00 13.4 0 Calma 5 Sudoeste 0 -- -- 96
2020-02-01 22:00:00 13.7 0 Calma 9 Noroeste 0 -- -- 96
2020-02-01 21:00:00 13.8 0 Calma 11 Sur 0 -- -- 96
2020-02-01 20:00:00 14 0 Calma 8 Sur 0 -- -- 96
2020-02-01 19:00:00 14.1 0 Calma 9 Sur 0.1 -- -- 96
2020-02-01 18:00:00 14.3 0 Calma 9 Sudoeste 0 -- -- 97
2020-02-01 17:00:00 14.5 0 Calma 12 Oeste 0.3 -- -- 97
2020-02-01 16:00:00 14.7 3 Sur 16 Sudeste 0.4 -- -- 97
2020-02-01 15:00:00 14.7 2 Sur 15 Sur 0.5 -- -- 97
2020-02-01 14:00:00 14.6 3 Sur 16 Sudoeste 0.4 -- -- 97
2020-02-01 13:00:00 14.3 0 Calma 14 Sudeste 0.1 -- -- 97
2020-02-01 12:00:00 13.7 2 Sudoeste 15 Sudoeste 0.3 -- -- 97
2020-02-01 11:00:00 13.3 0 Calma 7 Sudoeste 0.1 -- -- 97
2020-02-01 10:00:00 13.1 0 Calma 9 Sur 0.1 -- -- 97
2020-02-01 09:00:00 13.1 2 Sur 13 Sur 0.2 -- -- 97
2020-02-01 08:00:00 13.1 0 Calma 9 Sur 0.1 -- -- 97
2020-02-01 07:00:00 13.1 0 Calma 0 Calma 0 -- -- 97
2020-02-01 06:00:00 13.2 0 Calma 11 Sur 0 -- -- 97
2020-02-01 05:00:00 13.4 2 Sur 13 Sur 0.1 -- -- 97
2020-02-01 04:00:00 13.4 0 Calma 9 Sur 0.2 -- -- 97
2020-02-01 03:00:00 13.6 2 Sudoeste 15 Sudoeste 0.4 -- -- 97
2020-02-01 02:00:00 13.7 2 Sudoeste 18 Sur 0.4 -- -- 97
2020-02-01 01:00:00 13.7 4 Sudoeste 17 Sudoeste 0.8 -- -- 97
2020-02-01 00:00:00 13.7 3 Sudoeste 15 Sudoeste 0.8 -- -- 97
2020-01-31 23:00:00 13.8 0 Calma 15 Sudoeste 2.9 -- -- 96
2020-01-31 22:00:00 13.9 0 Calma 13 Sudeste 4.6 -- -- 96
2020-01-31 21:00:00 14 2 Sur 19 Sudoeste 2.5 -- -- 94
2020-01-31 20:00:00 13.9 0 Calma 12 Oeste 0.7 -- -- 92
2020-01-31 19:00:00 14.5 0 Calma 18 Sudeste 0 -- -- 86
2020-01-31 18:00:00 14.9 0 Calma 12 Sur 0 -- -- 83
2020-01-31 17:00:00 15.1 3 Sur 39 Sur 0 -- -- 78
2020-01-31 16:00:00 15.4 3 Sudoeste 21 Sudoeste 0 -- -- 80
2020-01-31 15:00:00 15.4 4 Sudoeste 17 Sudoeste 0 -- -- 82
2020-01-31 14:00:00 14.9 4 Sur 17 Sur 0 -- -- 86
2020-01-31 13:00:00 14 0 Calma 10 Sudoeste 0 -- -- 89
2020-01-31 12:00:00 13.8 0 Calma 8 Sur 0 -- -- 90
2020-01-31 11:00:00 13 0 Calma 7 Sur 0 -- -- 93
2020-01-31 10:00:00 11.8 0 Calma 8 Sur 0 -- -- 94
2020-01-31 09:00:00 11.8 0 Calma 6 Sudeste 0 -- -- 94
2020-01-31 08:00:00 12.1 0 Calma 13 Sudoeste 0 -- -- 95
2020-01-31 07:00:00 12.2 0 Calma 13 Oeste 0 -- -- 96
2020-01-31 06:00:00 12.1 0 Calma 12 Sudoeste 0 -- -- 96
2020-01-31 05:00:00 12.3 0 Calma 13 Sur 0.1 -- -- 96
2020-01-31 04:00:00 12.5 0 Calma 15 Sur 0 -- -- 96
2020-01-31 03:00:00 12.6 2 Sur 17 Sudeste 0 -- -- 96
2020-01-31 02:00:00 12.7 0 Calma -- -- 0.1 -- -- 96
2020-01-31 01:00:00 12.8 0 Calma -- -- 0.1 -- -- 96
2020-01-31 00:00:00 12.8 0 Calma -- -- 0 -- -- 96
2020-01-30 23:00:00 12.9 0 Calma -- -- 0.2 -- -- 96
2020-01-30 22:00:00 12.9 0 Calma 5 Sur 0.3 -- -- 96
2020-01-30 21:00:00 13 0 Calma 11 Sudoeste 0.1 -- -- 96
2020-01-30 20:00:00 13.2 0 Calma 8 Sudoeste 0 -- -- 95
2020-01-30 19:00:00 13.6 0 Calma 7 Sudoeste 0 -- -- 95
2020-01-30 18:00:00 13.7 0 Calma 12 Sur 0 -- -- 95
2020-01-30 17:00:00 13.9 3 Sur 13 Sudoeste 0 -- -- 92
2020-01-30 16:00:00 13.8 0 Calma 13 Sudoeste 0 -- -- 91
2020-01-30 15:00:00 13.7 0 Calma 17 Sudoeste 0 -- -- 89
2020-01-30 14:00:00 13.4 3 Sur 19 Sur 0 -- -- 90
2020-01-30 13:00:00 13 4 Sur 26 Sudoeste 0 -- -- 91
2020-01-30 12:00:00 12.3 0 Calma 15 Sudoeste 0.1 -- -- 93
2020-01-30 11:00:00 11.9 0 Calma 21 Sudoeste 0.1 -- -- 93
2020-01-30 10:00:00 11.5 3 Sur 17 Sur 0.2 -- -- 93
2020-01-30 09:00:00 11.3 3 Sur 20 Sudoeste 0.3 -- -- 93
2020-01-30 08:00:00 11.1 2 Sur 18 Sudoeste 0.3 -- -- 90
2020-01-30 07:00:00 11.1 3 Sudoeste 19 Oeste 0 -- -- 87
2020-01-30 06:00:00 11.1 0 Calma 24 Sudoeste 0.1 -- -- 86
2020-01-30 05:00:00 11.4 2 Sur 18 Sur 0 -- -- 85
2020-01-30 04:00:00 11.5 3 Sur 16 Sur 0 -- -- 88
2020-01-30 03:00:00 11.6 2 Sudeste 14 Sur 0 -- -- 90
2020-01-30 02:00:00 11.7 4 Sur 19 Sudoeste 0 -- -- 88
2020-01-30 01:00:00 11.9 5 Sur 20 Sudoeste 0 -- -- 88
2020-01-30 00:00:00 11.8 5 Sur 23 Sudoeste 0 -- -- 91
2020-01-29 23:00:00 11.7 2 Sudoeste 19 Sur 0 -- -- 93
2020-01-29 22:00:00 11.9 5 Sur 17 Sur 0 -- -- 96
2020-01-29 21:00:00 11.9 2 Sur 10 Sur 0 -- -- 97
2020-01-29 20:00:00 12 0 Calma 5 Sur 0.1 -- -- 97
2020-01-29 19:00:00 11.9 0 Calma 8 Oeste 0.4 -- -- 97
2020-01-29 18:00:00 12.1 0 Calma 8 Sur 1 -- -- 97
2020-01-29 17:00:00 12.1 0 Calma 8 Sur 0.7 -- -- 97
2020-01-29 16:00:00 12.1 0 Calma 11 Sur 0.4 -- -- 97
2020-01-29 15:00:00 12.2 0 Calma 13 Sur 0.3 -- -- 97
2020-01-29 14:00:00 12.3 0 Calma 15 Sudeste 0.3 -- -- 97
2020-01-29 13:00:00 11.7 3 Sudoeste 14 Sudoeste 1.3 -- -- 97
2020-01-29 12:00:00 11.7 0 Calma 20 Sur 1.9 -- -- 97
2020-01-29 11:00:00 11.5 0 Calma 15 Sudeste 0.8 -- -- 97
2020-01-29 10:00:00 11.4 0 Calma 10 Sur 2.1 -- -- 98
2020-01-29 09:00:00 11.5 0 Calma 14 Sudeste 1.7 -- -- 98
2020-01-29 08:00:00 11.1 3 Sur 13 Sur 0.6 -- -- 98
2020-01-29 07:00:00 11 2 Sur 10 Sur 0.9 -- -- 98
2020-01-29 06:00:00 11.2 0 Calma 7 Sudeste 0.6 -- -- 98
2020-01-29 05:00:00 11 0 Calma -- -- 2.6 -- -- 97
2020-01-29 04:00:00 11 0 Calma 5 Sur 0.2 -- -- 97
2020-01-29 03:00:00 10.6 0 Calma 0 Calma 0.4 -- -- 97
2020-01-29 02:00:00 10.6 0 Calma 3 Norte 0.8 -- -- 97
2020-01-29 01:00:00 10.8 0 Calma 2 Sur 0 -- -- 96
2020-01-29 00:00:00 10.7 0 Calma 8 Oeste 0 -- -- 96
2020-01-28 23:00:00 11.1 0 Calma 15 Oeste 0 -- -- 96
2020-01-28 22:00:00 11.4 0 Calma 12 Sudoeste 0 -- -- 96
2020-01-28 21:00:00 11 0 Calma -- -- 0.1 -- -- 96
2020-01-28 20:00:00 11.3 0 Calma -- -- 0.2 -- -- 95
2020-01-28 19:00:00 11.4 0 Calma -- -- 0.1 -- -- 94
2020-01-28 18:00:00 11.6 0 Calma -- -- 0.1 -- -- 93
2020-01-28 17:00:00 11.5 0 Calma 5 Este 0 -- -- 93
2020-01-28 16:00:00 11.6 0 Calma -- -- 0 -- -- 92
2020-01-28 15:00:00 11.3 0 Calma 0 Calma 0 -- -- 95
2020-01-28 14:00:00 10.8 0 Calma 2 Sudoeste 0 -- -- 97
2020-01-28 13:00:00 10.2 0 Calma -- -- 0 -- -- 97
2020-01-28 12:00:00 9.6 0 Calma -- -- 0 -- -- 97
2020-01-28 11:00:00 8.6 0 Calma -- -- 0 -- -- 97
2020-01-28 10:00:00 7.6 0 Calma -- -- 0 -- -- 97
2020-01-28 09:00:00 7.7 0 Calma -- -- 0 -- -- 97
2020-01-28 08:00:00 7.4 0 Calma -- -- 0 -- -- 96
2020-01-28 07:00:00 7.8 0 Calma 2 Nordeste 0 -- -- 96
2020-01-28 06:00:00 8.9 0 Calma 2 Sur 0 -- -- 96
2020-01-28 05:00:00 9.3 0 Calma 8 Sur 0 -- -- 96
2020-01-28 04:00:00 9 0 Calma 7 Este 0 -- -- 94
2020-01-28 03:00:00 9.2 0 Calma 7 Este 0 -- -- 93
2020-01-28 02:00:00 9.2 0 Calma 18 Noroeste 0 -- -- 91
2020-01-28 01:00:00 9.4 8 Oeste 28 Noroeste 0 -- -- 87
2020-01-28 00:00:00 10.4 8 Oeste 26 Oeste 1.5 -- -- 93
2020-01-27 23:00:00 11.3 5 Oeste 35 Noroeste 0.1 -- -- 93
2020-01-27 22:00:00 11.3 6 Oeste 24 Sudoeste 0.5 -- -- 97
2020-01-27 21:00:00 10.2 0 Calma 9 Sudoeste 0.8 -- -- 96
2020-01-27 20:00:00 10.1 0 Calma 13 Sur 2.6 -- -- 96
2020-01-27 19:00:00 10 0 Calma 13 Sudeste 1.6 -- -- 95
2020-01-27 18:00:00 10.1 0 Calma 12 Sudoeste 0.5 -- -- 94
2020-01-27 17:00:00 10.3 2 Sudoeste 12 Sur 0.6 -- -- 90
2020-01-27 16:00:00 10.7 2 Sudoeste 17 Oeste 0 -- -- 86
2020-01-27 15:00:00 10.7 3 Sudoeste 18 Sur 0 -- -- 86
2020-01-27 14:00:00 10.7 3 Sudoeste 22 Sudoeste 0 -- -- 86
2020-01-27 13:00:00 11 4 Sudoeste 19 Sudoeste 0 -- -- 89
2020-01-27 12:00:00 10.8 5 Sudoeste 18 Oeste 0 -- -- 89
2020-01-27 11:00:00 10.5 5 Oeste 20 Oeste 0 -- -- 93
2020-01-27 10:00:00 10.3 0 Calma 19 Oeste 0.4 -- -- 96
2020-01-27 09:00:00 10.7 3 Oeste 17 Sur 6.2 -- -- 97
2020-01-27 08:00:00 10.7 3 Sur 25 Sur 1.3 -- -- 97
2020-01-27 07:00:00 10.5 6 Sur 29 Sur 1.5 -- -- 97
2020-01-27 06:00:00 10.3 2 Sur 24 Sudoeste 1.6 -- -- 97
2020-01-27 05:00:00 10.2 6 Sudoeste 28 Sur 1.5 -- -- 97
2020-01-27 04:00:00 9.9 4 Sudoeste 22 Sudoeste 0.5 -- -- 96
2020-01-27 03:00:00 9.7 0 Calma 24 Sudoeste 2.1 -- -- 96
2020-01-27 02:00:00 9.6 0 Calma 13 Sur 0.9 -- -- 93
2020-01-27 01:00:00 9.8 0 Calma 12 Sudeste 0.3 -- -- 88
2020-01-27 00:00:00 10.1 0 Calma 18 Sudeste 0.1 -- -- 84
2020-01-26 23:00:00 10.3 0 Calma 14 Sudoeste 0 -- -- 81
2020-01-26 22:00:00 10.2 0 Calma 17 Sur 0 -- -- 79
2020-01-26 21:00:00 10.4 5 Sur 23 Sur 0 -- -- 76
2020-01-26 20:00:00 10.4 6 Sur 17 Sur 0 -- -- 76
2020-01-26 19:00:00 10.3 5 Sur 18 Sur 0 -- -- 76
2020-01-26 18:00:00 10.4 0 Calma 15 Sudoeste 0 -- -- 76
2020-01-26 17:00:00 10.8 0 Calma 12 Sur 0 -- -- 76
2020-01-26 16:00:00 10.1 0 Calma 13 Sudoeste 0 -- -- 78
2020-01-26 15:00:00 10.3 0 Calma 10 Sur 0 -- -- 79
2020-01-26 14:00:00 9.5 2 Sudoeste 12 Sudoeste 0 -- -- 84
2020-01-26 13:00:00 8.4 0 Calma -- -- 0 -- -- 88
2020-01-26 12:00:00 7.8 0 Calma 0 Calma 0 -- -- 98
2020-01-26 11:00:00 5.2 0 Calma 7 Este 0 -- -- 98
2020-01-26 10:00:00 3.4 0 Calma 0 Calma 0 -- -- 98
2020-01-26 09:00:00 2.9 0 Calma -- -- 0.4 -- -- 98
2020-01-26 08:00:00 3 0 Calma 0 Calma 0 -- -- 98
2020-01-26 07:00:00 2.6 0 Calma 0 Calma 0 -- -- 98
2020-01-26 06:00:00 1.3 0 Calma 0 Calma 0 -- -- 97
2020-01-26 05:00:00 0.9 0 Calma 0 Calma 0 -- -- 97
2020-01-26 04:00:00 0.5 0 Calma 0 Calma 0 -- -- 96
2020-01-26 03:00:00 1 0 Calma 0 Calma 0 -- -- 95
2020-01-26 02:00:00 1.6 0 Calma -- -- 0 -- -- 94
2020-01-26 01:00:00 2.4 0 Calma -- -- 0 -- -- 93
2020-01-26 00:00:00 3.7 0 Calma -- -- 0 -- -- 91
2020-01-25 23:00:00 5.1 0 Calma -- -- 0 -- -- 88
2020-01-25 22:00:00 6.3 0 Calma -- -- 0 -- -- 85
2020-01-25 21:00:00 7.1 0 Calma 4 Oeste 0 -- -- 82
2020-01-25 20:00:00 7.7 0 Calma -- -- 0 -- -- 75
2020-01-25 19:00:00 10 0 Calma -- -- 0 -- -- 66
2020-01-25 18:00:00 11.2 0 Calma -- -- 0 -- -- 63
2020-01-25 17:00:00 11.8 0 Calma 3 Sudoeste 0 -- -- 59
2020-01-25 16:00:00 13 0 Calma 9 Sudeste 0 -- -- 53
2020-01-25 15:00:00 13.7 0 Calma 6 Sur 0 -- -- 54
2020-01-25 14:00:00 11.8 0 Calma -- -- 0 -- -- 62
2020-01-25 13:00:00 10.5 0 Calma 2 Sudoeste 0 -- -- 76
2020-01-25 12:00:00 5.9 0 Calma 0 Calma 0 -- -- 99
2020-01-25 11:00:00 1.7 0 Calma -- -- 0 -- -- 99
2020-01-25 10:00:00 -0.5 0 Calma -- -- 0 -- -- 98
2020-01-25 09:00:00 -0.6 0 Calma -- -- 0 -- -- 98
2020-01-25 08:00:00 -0.2 0 Calma -- -- 0 -- -- 98
2020-01-25 07:00:00 0.1 0 Calma -- -- 0 -- -- 98
2020-01-25 06:00:00 0 0 Calma -- -- 0 -- -- 97
2020-01-25 05:00:00 0.2 0 Calma -- -- 0 -- -- 97
2020-01-25 04:00:00 0.7 0 Calma -- -- 0 -- -- 96
2020-01-25 03:00:00 0.9 0 Calma -- -- 0 -- -- 94
2020-01-25 02:00:00 1.8 0 Calma -- -- 0 -- -- 93
2020-01-25 01:00:00 2.6 0 Calma 4 Norte 0 -- -- 93
2020-01-25 00:00:00 3.5 0 Calma 5 Nordeste 0 -- -- 92
2020-01-24 23:00:00 4.4 0 Calma 6 Nordeste 0 -- -- 90
2020-01-24 22:00:00 5.4 0 Calma -- -- 0 -- -- 86
2020-01-24 21:00:00 6.7 0 Calma -- -- 0 -- -- 83
2020-01-24 20:00:00 8.4 0 Calma 0 Calma 0 -- -- 74
2020-01-24 19:00:00 10.3 0 Calma 8 Este 0 -- -- 70
2020-01-24 18:00:00 11.4 0 Calma 10 Este 0 -- -- 63
2020-01-24 17:00:00 11.8 0 Calma 9 Sudeste 0 -- -- 60
2020-01-24 16:00:00 12.2 0 Calma 9 Sudeste 0 -- -- 60
2020-01-24 15:00:00 12.8 0 Calma 15 Sur 0 -- -- 59
2020-01-24 14:00:00 12.6 3 Sudeste 16 Sur 0 -- -- 60
2020-01-24 13:00:00 11.9 3 Sudeste 12 Este 0 -- -- 65
2020-01-24 12:00:00 9.2 0 Calma 7 Este 0 -- -- 85
2020-01-24 11:00:00 4.5 0 Calma 7 Nordeste 0 -- -- 97
2020-01-24 10:00:00 2 0 Calma 10 Nordeste 0 -- -- 97
2020-01-24 09:00:00 2.1 0 Calma 8 Nordeste 0 -- -- 96
2020-01-24 08:00:00 1.9 0 Calma 5 Norte 0 -- -- 95
2020-01-24 07:00:00 2.5 2 Nordeste 9 Nordeste 0 -- -- 95
2020-01-24 06:00:00 2.6 0 Calma -- -- 0 -- -- 93
2020-01-24 05:00:00 3.6 0 Calma -- -- 0 -- -- 93
2020-01-24 04:00:00 4.6 0 Calma -- -- 0 -- -- 92
2020-01-24 03:00:00 5.1 0 Calma -- -- 0 -- -- 91
2020-01-24 02:00:00 4.9 0 Calma -- -- 0 -- -- 91
2020-01-24 01:00:00 4.6 0 Calma -- -- 0 -- -- 91
2020-01-24 00:00:00 4 0 Calma 0 Calma 0 -- -- 89
2020-01-23 23:00:00 4.5 0 Calma 4 Norte 0 -- -- 86
2020-01-23 22:00:00 5.1 0 Calma 12 Nordeste 0 -- -- 83
2020-01-23 21:00:00 5.8 0 Calma 7 Norte 0 -- -- 81
2020-01-23 20:00:00 6.3 0 Calma -- -- 0 -- -- 77
2020-01-23 19:00:00 8.6 0 Calma 2 Oeste 0 -- -- 66
2020-01-23 18:00:00 11.3 0 Calma 4 Norte 0 -- -- 56
2020-01-23 17:00:00 12.4 0 Calma 7 Sur 0 -- -- 53
2020-01-23 16:00:00 12.2 0 Calma 7 Este 0 -- -- 52
2020-01-23 15:00:00 10.1 0 Calma 6 Este 0 -- -- 61
2020-01-23 14:00:00 9.6 0 Calma 7 Este 0 -- -- 71
2020-01-23 13:00:00 6.9 0 Calma 4 Sudoeste 0 -- -- 90
2020-01-23 12:00:00 5.2 0 Calma 3 Sur 0 -- -- 98
2020-01-23 11:00:00 2.9 0 Calma -- -- 0 -- -- 99
2020-01-23 10:00:00 0.2 0 Calma -- -- 0 -- -- 98
2020-01-23 09:00:00 -0.2 0 Calma -- -- 0 -- -- 97
2020-01-23 08:00:00 -0.1 0 Calma -- -- 0 -- -- 97
2020-01-23 07:00:00 0.3 0 Calma -- -- 0 -- -- 96
2020-01-23 06:00:00 1.1 0 Calma 5 Nordeste 0 -- -- 95
2020-01-23 05:00:00 1.8 0 Calma -- -- 0 -- -- 94
2020-01-23 04:00:00 2.5 0 Calma -- -- 0 -- -- 93
2020-01-23 03:00:00 3.6 0 Calma 0 Calma 0 -- -- 90
2020-01-23 02:00:00 5 0 Calma -- -- 0 -- -- 89
2020-01-23 01:00:00 6 0 Calma -- -- 0 -- -- 85
2020-01-23 00:00:00 6.9 0 Calma 8 Nordeste 0 -- -- 83
2020-01-22 23:00:00 7.1 0 Calma -- -- 0 -- -- 79
2020-01-22 22:00:00 7.9 0 Calma 5 Sur 0 -- -- 74
2020-01-22 21:00:00 8.8 0 Calma 19 Nordeste 0 -- -- 70
2020-01-22 20:00:00 9.5 9 Nordeste 24 Norte 0 -- -- 67
2020-01-22 19:00:00 9.9 6 Norte 21 Nordeste 0 -- -- 64
2020-01-22 18:00:00 11.7 9 Nordeste 23 Nordeste 0 -- -- 58
2020-01-22 17:00:00 13.1 9 Nordeste 31 Nordeste 0 -- -- 56
2020-01-22 16:00:00 13.1 10 Nordeste 29 Nordeste 0 -- -- 54
2020-01-22 15:00:00 14.4 10 Nordeste 35 Nordeste 0 -- -- 52
2020-01-22 14:00:00 14.5 10 Nordeste 32 Este 0 -- -- 51
2020-01-22 13:00:00 13.3 12 Nordeste 27 Nordeste 0 -- -- 55
2020-01-22 12:00:00 11.5 7 Nordeste 30 Este 0 -- -- 64
2020-01-22 11:00:00 10.6 10 Nordeste 29 Nordeste 0 -- -- 67
2020-01-22 10:00:00 9.4 10 Nordeste 34 Nordeste 0 -- -- 70
2020-01-22 09:00:00 8.9 13 Nordeste 34 Nordeste 0 -- -- 70
2020-01-22 08:00:00 8.6 5 Nordeste 24 Nordeste 0 -- -- 70
2020-01-22 07:00:00 8.5 4 Nordeste 32 Nordeste 0 -- -- 69
2020-01-22 06:00:00 8.3 4 Nordeste 21 Nordeste 0 -- -- 68
2020-01-22 05:00:00 7.9 5 Norte 36 Nordeste 0 -- -- 65
2020-01-22 04:00:00 7.7 8 Nordeste 40 Norte 0 -- -- 64
2020-01-22 03:00:00 7.8 12 Nordeste 35 Nordeste 0 -- -- 61
2020-01-22 02:00:00 7.5 16 Nordeste 39 Nordeste 0 -- -- 61
2020-01-22 01:00:00 7.2 15 Nordeste 41 Norte 0 -- -- 64
2020-01-22 00:00:00 6.9 12 Nordeste 42 Nordeste 0 -- -- 64